Time;durP1;ratioP1;P1;durP2;ratioP2;P2;SDS_P1;SDS_P2;PMS_P1;PMS_P2;Temp;Humidity;BMP_temperature;BMP_pressure;BME280_temperature;BME280_humidity;BME280_pressure;Samples;Min_cycle;Max_cycle;Signal;HPM_P1;HPM_P2
2021/10/23 00:02:13;;;;;;;0.70;0.70;;;9.70;99.90;;;;;;5050859;28;20207;-73
2021/10/23 00:04:39;;;;;;;2.07;1.20;;;9.70;99.90;;;;;;5032719;28;20215;-73
2021/10/23 00:07:06;;;;;;;1.00;1.00;;;9.70;99.90;;;;;;5034161;28;20223;-73
2021/10/23 00:09:31;;;;;;;1.30;1.20;;;9.70;99.90;;;;;;5049357;28;20227;-72
2021/10/23 00:11:57;;;;;;;2.20;1.23;;;9.60;99.90;;;;;;5012875;28;20466;-73
2021/10/23 00:14:23;;;;;;;2.47;1.50;;;9.60;99.90;;;;;;5039363;28;20378;-74
2021/10/23 00:16:49;;;;;;;3.20;1.27;;;9.60;99.90;;;;;;5020563;28;20696;-73
2021/10/23 00:19:14;;;;;;;3.77;1.50;;;9.50;99.90;;;;;;5030512;28;20212;-72
2021/10/23 00:21:40;;;;;;;2.63;1.70;;;9.50;99.90;;;;;;5019754;28;20215;-72
2021/10/23 00:24:06;;;;;;;1.93;1.80;;;9.50;99.90;;;;;;5048766;28;20223;-73
2021/10/23 00:26:31;;;;;;;1.70;1.60;;;9.50;99.90;;;;;;5010399;28;20223;-73
2021/10/23 00:28:57;;;;;;;1.97;1.73;;;9.50;99.90;;;;;;5011067;28;20228;-73
2021/10/23 00:31:23;;;;;;;1.70;1.60;;;9.50;99.90;;;;;;5010910;28;20258;-73
2021/10/23 00:33:49;;;;;;;2.93;2.00;;;9.50;99.90;;;;;;5009801;28;20212;-72
2021/10/23 00:36:15;;;;;;;4.27;1.90;;;9.50;99.90;;;;;;5003703;28;20455;-71
2021/10/23 00:38:40;;;;;;;2.17;1.60;;;9.50;99.90;;;;;;5025419;28;20314;-72
2021/10/23 00:41:06;;;;;;;2.77;1.50;;;9.40;99.90;;;;;;5010170;28;20228;-73
2021/10/23 00:43:36;;;;;;;4.93;1.80;;;9.40;99.90;;;;;;5029352;28;20247;-72
2021/10/23 00:46:02;;;;;;;2.50;1.87;;;9.40;99.90;;;;;;5014006;28;20211;-71
2021/10/23 00:48:27;;;;;;;3.83;2.10;;;9.40;99.90;;;;;;5012332;28;20919;-73
2021/10/23 00:50:53;;;;;;;3.67;1.73;;;9.30;99.90;;;;;;5013972;28;20216;-73
2021/10/23 00:53:21;;;;;;;2.80;1.80;;;9.30;99.90;;;;;;5013991;28;20220;-72
2021/10/23 00:55:49;;;;;;;4.73;1.77;;;9.30;99.90;;;;;;5013324;28;20302;-73
2021/10/23 00:58:16;;;;;;;1.83;1.73;;;9.30;99.90;;;;;;5028919;28;20855;-71
2021/10/23 01:00:42;;;;;;;2.50;1.90;;;9.20;99.90;;;;;;5025912;28;20299;-73
2021/10/23 01:03:08;;;;;;;4.00;1.57;;;9.20;99.90;;;;;;4994608;28;20601;-73
2021/10/23 01:05:34;;;;;;;2.70;1.60;;;9.20;99.90;;;;;;4992905;28;20227;-72
2021/10/23 01:08:00;;;;;;;3.00;2.00;;;9.30;99.90;;;;;;5014331;28;20285;-72
2021/10/23 01:10:26;;;;;;;1.90;1.67;;;9.30;99.90;;;;;;5002650;28;20649;-73
2021/10/23 01:12:51;;;;;;;3.80;2.30;;;9.20;99.90;;;;;;5002068;28;20223;-73
2021/10/23 01:15:26;;;;;;;2.90;1.47;;;9.30;99.90;;;;;;5013687;28;20549;-73
2021/10/23 01:17:53;;;;;;;3.30;2.07;;;9.30;99.90;;;;;;5003106;28;20314;-73
2021/10/23 01:20:21;;;;;;;2.77;2.17;;;9.20;99.90;;;;;;5042670;28;20469;-73
2021/10/23 01:22:47;;;;;;;1.83;1.63;;;9.20;99.90;;;;;;5021616;28;20460;-72
2021/10/23 01:25:13;;;;;;;1.97;1.50;;;9.20;99.90;;;;;;5018087;28;20467;-73
2021/10/23 01:27:40;;;;;;;1.60;1.50;;;9.20;99.90;;;;;;4979045;28;20468;-72
2021/10/23 01:30:09;;;;;;;6.13;1.90;;;9.20;99.90;;;;;;5037465;28;20215;-73
2021/10/23 01:32:34;;;;;;;4.40;1.90;;;9.20;99.90;;;;;;5049514;28;20479;-72
2021/10/23 01:35:01;;;;;;;2.53;2.33;;;9.20;99.90;;;;;;5053552;28;20483;-73
2021/10/23 01:37:44;;;;;;;2.63;1.70;;;9.30;99.90;;;;;;5031016;28;20265;-72
2021/10/23 01:40:13;;;;;;;2.13;1.93;;;9.30;99.90;;;;;;5032398;28;20493;-73
2021/10/23 01:42:39;;;;;;;1.80;1.70;;;9.30;99.90;;;;;;5032064;28;20971;-72
2021/10/23 01:45:06;;;;;;;1.93;1.70;;;9.30;99.90;;;;;;5041732;28;20504;-72
2021/10/23 01:47:32;;;;;;;2.23;2.00;;;9.30;99.90;;;;;;5015159;28;20230;-73
2021/10/23 01:49:57;;;;;;;3.80;1.67;;;9.30;99.90;;;;;;5033451;28;20533;-72
2021/10/23 01:52:23;;;;;;;1.97;1.73;;;9.30;99.90;;;;;;5021654;28;20575;-71
2021/10/23 01:54:49;;;;;;;3.73;1.70;;;9.30;99.90;;;;;;5026923;28;20572;-72
2021/10/23 01:57:14;;;;;;;2.10;1.90;;;9.30;99.90;;;;;;5035323;28;20222;-71
2021/10/23 01:59:40;;;;;;;2.67;1.80;;;9.30;99.90;;;;;;5023276;28;20214;-72
2021/10/23 02:02:06;;;;;;;4.50;2.50;;;9.30;99.90;;;;;;5035771;28;20219;-72
2021/10/23 02:04:32;;;;;;;3.37;2.97;;;9.30;99.90;;;;;;5029549;28;20299;-73
2021/10/23 02:06:57;;;;;;;2.50;2.07;;;9.30;99.90;;;;;;5032861;28;20303;-72
2021/10/23 02:09:23;;;;;;;3.70;2.70;;;9.30;99.90;;;;;;5013664;28;20476;-72
2021/10/23 02:11:49;;;;;;;2.77;2.47;;;9.30;99.90;;;;;;5001649;28;20216;-72
2021/10/23 02:14:15;;;;;;;3.27;2.10;;;9.30;99.90;;;;;;5058782;28;20215;-71
2021/10/23 02:16:40;;;;;;;4.30;2.80;;;9.30;99.90;;;;;;5051697;28;20454;-71
2021/10/23 02:19:06;;;;;;;3.17;2.40;;;9.30;99.90;;;;;;5019089;28;20220;-73
2021/10/23 02:21:32;;;;;;;5.90;2.20;;;9.40;99.90;;;;;;5035052;28;20763;-72
2021/10/23 02:23:58;;;;;;;3.47;1.77;;;9.30;99.90;;;;;;5045497;28;20595;-72
2021/10/23 02:26:23;;;;;;;1.40;1.30;;;9.30;99.90;;;;;;5038671;28;20234;-72
2021/10/23 02:28:49;;;;;;;3.23;2.23;;;9.30;99.90;;;;;;5038336;28;20212;-72
2021/10/23 02:31:16;;;;;;;2.60;1.80;;;9.30;99.90;;;;;;5031541;28;20207;-71
2021/10/23 02:33:42;;;;;;;1.50;1.40;;;9.30;99.90;;;;;;5027116;28;20510;-72
2021/10/23 02:36:07;;;;;;;1.77;1.67;;;9.30;99.90;;;;;;5011085;28;20218;-72
2021/10/23 02:38:33;;;;;;;2.00;1.90;;;9.20;99.90;;;;;;5027865;28;20251;-72
2021/10/23 02:40:59;;;;;;;1.83;1.50;;;9.30;99.90;;;;;;5017857;28;20638;-71
2021/10/23 02:43:25;;;;;;;3.33;1.50;;;9.30;99.90;;;;;;5017835;28;20214;-71
2021/10/23 02:45:52;;;;;;;2.93;1.83;;;9.20;99.90;;;;;;5024971;28;20276;-72
2021/10/23 02:48:18;;;;;;;1.93;1.80;;;9.20;99.90;;;;;;5027743;28;20847;-71
2021/10/23 02:50:44;;;;;;;1.70;1.60;;;9.20;99.90;;;;;;5034879;28;20247;-72
2021/10/23 02:53:10;;;;;;;3.33;2.30;;;9.30;99.90;;;;;;5020508;28;20529;-72
2021/10/23 02:55:36;;;;;;;3.53;2.20;;;9.20;99.90;;;;;;5026321;28;20269;-72
2021/10/23 02:58:02;;;;;;;2.43;2.23;;;9.20;99.90;;;;;;5036736;28;20277;-71
2021/10/23 03:00:29;;;;;;;2.27;1.73;;;9.10;99.90;;;;;;5045663;28;20468;-72
2021/10/23 03:02:56;;;;;;;2.80;2.23;;;9.00;99.90;;;;;;5054928;28;20450;-72
2021/10/23 03:05:22;;;;;;;2.33;2.03;;;9.00;99.90;;;;;;5038189;28;20537;-72
2021/10/23 03:07:48;;;;;;;2.30;2.10;;;9.00;99.90;;;;;;5035493;28;20585;-71
2021/10/23 03:10:15;;;;;;;3.10;1.80;;;9.00;99.90;;;;;;5054211;28;20223;-71
2021/10/23 03:12:41;;;;;;;2.30;2.10;;;9.00;99.90;;;;;;5031985;28;20453;-73
2021/10/23 03:15:08;;;;;;;2.60;2.20;;;9.00;99.90;;;;;;5021123;28;20833;-72
2021/10/23 03:17:34;;;;;;;1.90;1.80;;;9.00;99.90;;;;;;5054269;28;20821;-71
2021/10/23 03:20:00;;;;;;;3.20;2.27;;;9.00;99.90;;;;;;5054572;28;20499;-71
2021/10/23 03:22:26;;;;;;;4.13;2.37;;;9.10;99.90;;;;;;5049664;28;20219;-72
2021/10/23 03:24:52;;;;;;;1.70;1.60;;;9.00;99.90;;;;;;5024714;28;20448;-72
2021/10/23 03:27:22;;;;;;;2.00;1.90;;;9.10;99.90;;;;;;4998000;28;20462;-71
2021/10/23 03:29:50;;;;;;;2.53;2.10;;;9.10;99.90;;;;;;5014198;28;20220;-72
2021/10/23 03:32:16;;;;;;;2.10;1.90;;;9.10;99.90;;;;;;5023652;28;20851;-72
2021/10/23 03:34:42;;;;;;;2.90;2.10;;;9.00;99.90;;;;;;5047547;28;20445;-72
2021/10/23 03:37:08;;;;;;;4.27;1.93;;;9.10;99.90;;;;;;5030012;28;20479;-72
2021/10/23 03:39:34;;;;;;;2.20;2.00;;;9.10;99.90;;;;;;5048556;28;20227;-73
2021/10/23 03:41:59;;;;;;;4.93;2.37;;;9.10;99.90;;;;;;5024672;28;20271;-71
2021/10/23 03:44:25;;;;;;;5.17;1.90;;;9.10;99.90;;;;;;5017518;28;20215;-71
2021/10/23 03:46:51;;;;;;;4.03;1.90;;;9.10;99.90;;;;;;5007686;28;20225;-72
2021/10/23 03:49:16;;;;;;;1.90;1.70;;;9.10;99.90;;;;;;5031038;28;20233;-72
2021/10/23 03:51:43;;;;;;;3.43;1.93;;;9.00;99.90;;;;;;5002628;28;20746;-72
2021/10/23 03:54:09;;;;;;;2.07;1.97;;;9.10;99.90;;;;;;5051824;28;20286;-72
2021/10/23 03:56:34;;;;;;;4.00;1.50;;;9.00;99.90;;;;;;5033617;28;20526;-72
2021/10/23 03:59:00;;;;;;;1.93;1.83;;;9.00;99.90;;;;;;5032367;28;20228;-72
2021/10/23 04:01:26;;;;;;;2.40;1.87;;;9.10;99.90;;;;;;5013359;28;20228;-72
2021/10/23 04:03:53;;;;;;;6.83;2.10;;;9.00;99.90;;;;;;5030849;28;20227;-71
2021/10/23 04:06:19;;;;;;;3.90;2.43;;;9.00;99.90;;;;;;5031032;28;20227;-72
2021/10/23 04:08:45;;;;;;;2.20;1.90;;;9.00;99.90;;;;;;5006766;28;20467;-72
2021/10/23 04:11:10;;;;;;;8.50;1.93;;;9.00;99.90;;;;;;5050724;28;20234;-72
2021/10/23 04:13:36;;;;;;;2.17;1.70;;;9.00;99.90;;;;;;5016275;28;20212;-72
2021/10/23 04:16:02;;;;;;;3.43;1.80;;;9.00;99.90;;;;;;5017560;28;20220;-72
2021/10/23 04:18:28;;;;;;;2.47;1.90;;;9.00;99.90;;;;;;5003810;28;20248;-72
2021/10/23 04:20:55;;;;;;;2.40;2.17;;;9.00;99.90;;;;;;5047858;28;20492;-71
2021/10/23 04:23:20;;;;;;;3.80;2.30;;;9.00;99.90;;;;;;4998150;28;20474;-71
2021/10/23 04:25:46;;;;;;;2.60;1.87;;;9.00;99.90;;;;;;4996646;28;20224;-72
2021/10/23 04:28:12;;;;;;;1.63;1.53;;;9.00;99.90;;;;;;5007815;28;20272;-71
2021/10/23 04:30:37;;;;;;;2.57;1.80;;;9.00;99.90;;;;;;5027658;28;20640;-72
2021/10/23 04:33:03;;;;;;;2.60;2.13;;;8.90;99.90;;;;;;5025981;28;20249;-72
2021/10/23 04:35:29;;;;;;;4.50;2.13;;;8.90;99.90;;;;;;5020574;28;20219;-72
2021/10/23 04:37:55;;;;;;;4.53;2.40;;;8.90;99.90;;;;;;5033934;28;20250;-72
2021/10/23 04:40:21;;;;;;;2.07;1.67;;;8.90;99.90;;;;;;5028069;28;20217;-71
2021/10/23 04:42:46;;;;;;;4.93;1.90;;;8.90;99.90;;;;;;5002011;28;20216;-71
2021/10/23 04:45:12;;;;;;;3.10;2.03;;;8.80;99.90;;;;;;5013640;28;20455;-71
2021/10/23 04:47:38;;;;;;;1.73;1.53;;;8.90;99.90;;;;;;5007765;28;20221;-71
2021/10/23 04:50:04;;;;;;;2.30;1.83;;;8.90;99.90;;;;;;5029169;28;20262;-72
2021/10/23 04:52:30;;;;;;;3.47;2.23;;;8.90;99.90;;;;;;5013193;28;20577;-71
2021/10/23 04:54:56;;;;;;;2.73;2.00;;;9.00;99.90;;;;;;5011998;28;20494;-72
2021/10/23 04:57:21;;;;;;;4.90;2.40;;;8.90;99.90;;;;;;5034448;28;20704;-70
2021/10/23 04:59:47;;;;;;;7.17;3.70;;;9.00;99.90;;;;;;5001028;28;20223;-71
2021/10/23 05:02:13;;;;;;;5.97;3.10;;;9.00;99.90;;;;;;5009406;28;20346;-72
2021/10/23 05:04:39;;;;;;;6.20;3.30;;;9.00;99.90;;;;;;5038459;28;20690;-72
2021/10/23 05:07:04;;;;;;;5.13;3.00;;;9.00;99.90;;;;;;5000078;28;20466;-72
2021/10/23 05:09:30;;;;;;;5.70;3.87;;;9.00;99.90;;;;;;5022258;28;20315;-72
2021/10/23 05:11:56;;;;;;;4.20;3.50;;;9.00;99.90;;;;;;5037386;28;20230;-72
2021/10/23 05:14:21;;;;;;;4.30;3.60;;;9.00;99.90;;;;;;5036840;28;20299;-72
2021/10/23 05:16:47;;;;;;;6.63;3.20;;;9.00;99.90;;;;;;5054544;28;20254;-72
2021/10/23 05:19:13;;;;;;;4.03;3.07;;;9.00;99.90;;;;;;5019562;28;20230;-71
2021/10/23 05:21:39;;;;;;;4.00;2.83;;;9.00;99.90;;;;;;5019818;28;20220;-72
2021/10/23 05:24:04;;;;;;;2.80;2.27;;;9.00;99.90;;;;;;5036738;28;20220;-72
2021/10/23 05:26:30;;;;;;;6.67;2.97;;;9.00;99.90;;;;;;5046833;28;20614;-72
2021/10/23 05:28:56;;;;;;;3.23;2.27;;;9.00;99.90;;;;;;5016416;28;20225;-72
2021/10/23 05:31:21;;;;;;;6.57;2.60;;;9.00;99.90;;;;;;5033254;28;20226;-72
2021/10/23 05:33:47;;;;;;;2.03;1.83;;;9.00;99.90;;;;;;5027969;28;20215;-72
2021/10/23 05:36:13;;;;;;;3.17;1.93;;;9.00;99.90;;;;;;5006014;28;20674;-72
2021/10/23 05:38:38;;;;;;;3.20;1.93;;;9.00;99.90;;;;;;5031909;28;20242;-72
2021/10/23 05:41:04;;;;;;;5.33;2.00;;;9.00;99.90;;;;;;5026181;28;20315;-72
2021/10/23 05:43:30;;;;;;;3.20;2.17;;;9.00;99.90;;;;;;5029539;28;20226;-73
2021/10/23 05:45:55;;;;;;;3.07;2.50;;;9.00;99.90;;;;;;5035460;28;20244;-71
2021/10/23 05:48:21;;;;;;;3.73;3.37;;;9.00;99.90;;;;;;5035709;28;20232;-72
2021/10/23 05:50:47;;;;;;;3.77;3.20;;;9.00;99.90;;;;;;5019444;28;20212;-72
2021/10/23 05:53:13;;;;;;;3.30;2.97;;;9.00;99.90;;;;;;5016894;28;20236;-71
2021/10/23 05:55:38;;;;;;;4.70;3.30;;;9.00;99.90;;;;;;5024133;28;20698;-72
2021/10/23 05:58:05;;;;;;;3.50;3.00;;;9.00;99.90;;;;;;5016127;28;20670;-71
2021/10/23 06:00:34;;;;;;;10.47;5.80;;;9.00;99.90;;;;;;5029608;28;20227;-72
2021/10/23 06:03:01;;;;;;;5.30;3.97;;;9.00;99.90;;;;;;5035963;28;20521;-72
2021/10/23 06:05:26;;;;;;;7.60;5.30;;;9.00;99.90;;;;;;5005459;28;20452;-71
2021/10/23 06:07:52;;;;;;;4.43;4.07;;;9.00;99.90;;;;;;5041920;28;20492;-72
2021/10/23 06:10:18;;;;;;;5.60;4.73;;;9.00;99.90;;;;;;5018495;28;20216;-69
2021/10/23 06:12:45;;;;;;;7.10;4.50;;;9.00;99.90;;;;;;5018307;28;20235;-71
2021/10/23 06:15:11;;;;;;;6.10;3.57;;;9.00;99.90;;;;;;5019437;28;20234;-71
2021/10/23 06:17:37;;;;;;;4.00;3.63;;;9.00;99.90;;;;;;5035075;28;20475;-71
2021/10/23 06:20:04;;;;;;;5.60;4.10;;;9.00;99.90;;;;;;5019281;28;20228;-72
2021/10/23 06:22:30;;;;;;;6.23;3.33;;;9.00;99.90;;;;;;5018871;28;20223;-72
2021/10/23 06:24:56;;;;;;;7.17;3.40;;;9.00;99.90;;;;;;5019161;28;20867;-73
2021/10/23 06:27:21;;;;;;;3.43;3.07;;;9.00;99.90;;;;;;5030477;28;20497;-72
2021/10/23 06:29:47;;;;;;;3.03;2.57;;;9.00;99.90;;;;;;5006540;28;20239;-72
2021/10/23 06:32:13;;;;;;;3.20;2.77;;;9.00;99.90;;;;;;4998817;28;20235;-73
2021/10/23 06:34:41;;;;;;;3.17;2.43;;;9.00;99.90;;;;;;5013168;28;20223;-72
2021/10/23 06:37:08;;;;;;;2.27;2.17;;;9.10;99.90;;;;;;5023197;28;20225;-71
2021/10/23 06:39:34;;;;;;;3.67;2.23;;;9.00;99.90;;;;;;5024053;28;20470;-72
2021/10/23 06:41:59;;;;;;;2.60;2.00;;;9.00;99.90;;;;;;5013647;28;21122;-72
2021/10/23 06:44:25;;;;;;;2.50;1.83;;;9.10;99.90;;;;;;5000324;28;20501;-72
2021/10/23 06:46:51;;;;;;;4.00;2.83;;;9.10;99.90;;;;;;5013478;28;20270;-73
2021/10/23 06:49:16;;;;;;;5.20;2.50;;;9.10;99.90;;;;;;5032618;28;20693;-72
2021/10/23 06:51:42;;;;;;;4.77;2.90;;;9.00;99.90;;;;;;5024933;28;20216;-72
2021/10/23 06:54:08;;;;;;;3.30;3.00;;;9.10;99.90;;;;;;5028546;28;20259;-72
2021/10/23 06:56:34;;;;;;;3.63;2.67;;;9.10;99.90;;;;;;5021041;28;20225;-71
2021/10/23 06:58:59;;;;;;;4.27;3.40;;;9.10;99.90;;;;;;5012862;28;20228;-73
2021/10/23 07:01:25;;;;;;;10.43;3.57;;;9.10;99.90;;;;;;4996134;28;20315;-73
2021/10/23 07:03:51;;;;;;;6.07;4.00;;;9.10;99.90;;;;;;5016541;28;20244;-72
2021/10/23 07:06:16;;;;;;;4.53;3.40;;;9.10;99.90;;;;;;5044099;28;20251;-72
2021/10/23 07:08:42;;;;;;;12.40;3.60;;;9.10;99.90;;;;;;5027813;28;20224;-72
2021/10/23 07:11:08;;;;;;;3.23;2.70;;;9.10;99.90;;;;;;5024637;28;20307;-72
2021/10/23 07:13:35;;;;;;;7.90;2.83;;;9.20;99.90;;;;;;5014919;28;20234;-73
2021/10/23 07:16:01;;;;;;;5.87;3.03;;;9.20;99.90;;;;;;5032631;28;20482;-71
2021/10/23 07:18:27;;;;;;;4.37;3.10;;;9.20;99.90;;;;;;5013462;28;20466;-74
2021/10/23 07:20:53;;;;;;;2.67;2.47;;;9.20;99.90;;;;;;5004877;28;20459;-71
2021/10/23 07:23:18;;;;;;;4.70;3.20;;;9.20;99.90;;;;;;5016931;28;20225;-73
2021/10/23 07:25:46;;;;;;;4.30;3.27;;;9.20;99.90;;;;;;5011933;28;20213;-73
2021/10/23 07:28:12;;;;;;;3.07;2.70;;;9.20;99.90;;;;;;5032952;28;20311;-72
2021/10/23 07:30:38;;;;;;;5.00;3.00;;;9.20;99.90;;;;;;5031656;28;20549;-73
2021/10/23 07:33:03;;;;;;;3.40;2.70;;;9.20;99.90;;;;;;5031758;28;20243;-72
2021/10/23 07:35:29;;;;;;;3.50;2.60;;;9.20;99.90;;;;;;4980681;28;20216;-72
2021/10/23 07:37:55;;;;;;;3.77;2.40;;;9.20;99.90;;;;;;5010329;28;20233;-73
2021/10/23 07:40:20;;;;;;;2.80;2.60;;;9.20;99.90;;;;;;5017914;28;20215;-73
2021/10/23 07:42:46;;;;;;;4.43;2.53;;;9.20;99.90;;;;;;5021614;28;20239;-72
2021/10/23 07:45:13;;;;;;;5.20;2.80;;;9.30;99.90;;;;;;5029959;28;20208;-72
2021/10/23 07:47:42;;;;;;;6.57;2.77;;;9.30;99.90;;;;;;5045005;28;20247;-72
2021/10/23 07:50:09;;;;;;;3.77;2.50;;;9.30;99.90;;;;;;5012047;28;20475;-73
2021/10/23 07:52:39;;;;;;;2.70;2.40;;;9.30;99.90;;;;;;5016997;28;20459;-73
2021/10/23 07:55:07;;;;;;;3.83;2.43;;;9.30;99.90;;;;;;5028611;28;20470;-72
2021/10/23 07:57:34;;;;;;;2.77;2.53;;;9.30;99.90;;;;;;5009968;28;20479;-72
2021/10/23 08:00:03;;;;;;;2.93;2.63;;;9.30;99.90;;;;;;5011811;28;20461;-72
2021/10/23 08:02:54;;;;;;;5.80;3.40;;;9.40;99.90;;;;;;5029969;28;20581;-72
2021/10/23 08:05:22;;;;;;;3.30;3.00;;;9.40;99.90;;;;;;5027476;28;20589;-73
2021/10/23 08:07:48;;;;;;;3.80;2.97;;;9.40;99.90;;;;;;4991495;28;20453;-72
2021/10/23 08:10:14;;;;;;;3.20;2.53;;;9.40;99.90;;;;;;5034211;28;20494;-72
2021/10/23 08:12:41;;;;;;;4.43;3.30;;;9.40;99.90;;;;;;5027851;28;20944;-72
2021/10/23 08:15:09;;;;;;;3.37;3.07;;;9.50;99.90;;;;;;5007688;28;20559;-72
2021/10/23 08:17:35;;;;;;;2.83;2.07;;;9.50;99.90;;;;;;5013707;28;20581;-73
2021/10/23 08:20:00;;;;;;;5.50;3.17;;;9.50;99.90;;;;;;5009853;28;20520;-73
2021/10/23 08:22:26;;;;;;;3.50;2.87;;;9.50;99.90;;;;;;5009720;28;20458;-73
2021/10/23 08:24:53;;;;;;;2.90;2.53;;;9.60;99.90;;;;;;5001426;28;20212;-73
2021/10/23 08:27:19;;;;;;;5.87;2.33;;;9.60;99.90;;;;;;5017310;28;20222;-72
2021/10/23 08:29:45;;;;;;;3.13;2.33;;;9.60;99.90;;;;;;5019539;28;20461;-72
2021/10/23 08:32:15;;;;;;;5.10;3.40;;;9.70;99.90;;;;;;5013761;28;20220;-74
2021/10/23 08:34:41;;;;;;;3.50;3.13;;;9.70;99.90;;;;;;5012317;28;20473;-72
2021/10/23 08:37:07;;;;;;;6.10;3.27;;;9.70;99.90;;;;;;5016556;28;20470;-72
2021/10/23 08:39:33;;;;;;;4.80;3.53;;;9.70;99.90;;;;;;5015885;28;20478;-72
2021/10/23 08:41:59;;;;;;;3.60;2.97;;;9.80;99.90;;;;;;5009562;28;20287;-72
2021/10/23 08:44:27;;;;;;;2.60;2.40;;;9.80;99.90;;;;;;5047803;28;20639;-71
2021/10/23 08:46:53;;;;;;;3.57;3.27;;;9.80;99.90;;;;;;5013308;28;20458;-72
2021/10/23 08:49:20;;;;;;;5.60;3.40;;;9.90;99.90;;;;;;5010910;28;20463;-72
2021/10/23 08:51:45;;;;;;;3.53;2.70;;;9.90;99.90;;;;;;5011773;28;20483;-71
2021/10/23 08:54:14;;;;;;;6.27;2.80;;;10.00;99.90;;;;;;5027137;28;20494;-73
2021/10/23 08:56:41;;;;;;;3.83;2.83;;;10.00;99.90;;;;;;5024028;28;20211;-72
2021/10/23 08:59:07;;;;;;;4.50;3.13;;;10.10;99.90;;;;;;5026546;28;20527;-71
2021/10/23 09:01:33;;;;;;;3.13;2.83;;;10.10;99.90;;;;;;5020292;28;20891;-72
2021/10/23 09:03:59;;;;;;;5.67;3.50;;;10.10;99.90;;;;;;5004820;28;20450;-73
2021/10/23 09:06:37;;;;;;;6.30;3.20;;;10.10;99.90;;;;;;5004394;28;20250;-73
2021/10/23 09:09:11;;;;;;;3.43;3.20;;;10.20;99.90;;;;;;5025108;28;20227;-72
2021/10/23 09:11:39;;;;;;;5.37;4.10;;;10.20;99.90;;;;;;5036997;28;20475;-73
2021/10/23 09:14:23;;;;;;;4.90;3.57;;;10.20;99.90;;;;;;5006917;28;20494;-72
2021/10/23 09:16:59;;;;;;;5.97;3.80;;;10.20;99.90;;;;;;5025649;28;20982;-73
2021/10/23 09:19:32;;;;;;;4.40;2.87;;;10.30;99.90;;;;;;5005769;28;20450;-73
2021/10/23 09:21:57;;;;;;;4.23;3.70;;;10.30;99.90;;;;;;5020916;28;20446;-73
2021/10/23 09:24:23;;;;;;;9.90;7.30;;;10.30;99.90;;;;;;4997497;28;20470;-72
2021/10/23 09:26:50;;;;;;;17.10;12.77;;;10.30;99.90;;;;;;5021040;28;20244;-72
2021/10/23 09:29:23;;;;;;;20.13;13.00;;;10.40;99.90;;;;;;5033038;28;20499;-72
2021/10/23 09:31:49;;;;;;;14.10;10.37;;;10.40;99.90;;;;;;5030615;28;20485;-73
2021/10/23 09:34:20;;;;;;;17.97;12.50;;;10.40;99.90;;;;;;4997023;28;20494;-71
2021/10/23 09:36:49;;;;;;;23.07;14.77;;;10.50;99.90;;;;;;4999661;28;20451;-73
2021/10/23 09:39:27;;;;;;;23.30;13.93;;;10.50;99.90;;;;;;5004352;28;20519;-73
2021/10/23 09:42:16;;;;;;;16.73;11.10;;;10.50;99.90;;;;;;5004593;28;20455;-73
2021/10/23 09:45:06;;;;;;;9.83;8.57;;;10.60;99.90;;;;;;5010138;28;20528;-73
2021/10/23 09:47:45;;;;;;;6.83;6.20;;;10.60;99.90;;;;;;5031002;28;20557;-72
2021/10/23 09:50:15;;;;;;;10.53;6.70;;;10.60;99.90;;;;;;5020688;28;20542;-73
2021/10/23 09:53:07;;;;;;;9.50;6.77;;;10.70;99.90;;;;;;5006633;28;20543;-73
2021/10/23 09:55:48;;;;;;;10.07;7.00;;;10.70;99.90;;;;;;4994958;28;20513;-72
2021/10/23 09:58:23;;;;;;;6.70;5.13;;;10.80;99.90;;;;;;5013721;28;20961;-72
2021/10/23 10:00:50;;;;;;;4.27;3.50;;;10.80;99.90;;;;;;5029967;28;20454;-73
2021/10/23 10:03:23;;;;;;;2.87;2.67;;;10.90;99.90;;;;;;4996526;28;20486;-73
2021/10/23 10:05:59;;;;;;;5.30;3.43;;;10.90;99.90;;;;;;5021297;28;20832;-73
2021/10/23 10:08:27;;;;;;;4.90;3.73;;;10.90;99.90;;;;;;5006527;28;20499;-73
2021/10/23 10:10:54;;;;;;;4.07;3.27;;;11.00;99.90;;;;;;5026116;28;21061;-72
2021/10/23 10:13:25;;;;;;;8.03;3.87;;;11.00;99.90;;;;;;5026705;28;20458;-75
2021/10/23 10:15:55;;;;;;;5.50;3.70;;;11.10;99.90;;;;;;5000883;28;20479;-73
2021/10/23 10:18:22;;;;;;;3.17;2.87;;;11.10;99.90;;;;;;4988322;28;20482;-72
2021/10/23 10:20:54;;;;;;;4.20;2.83;;;11.20;99.90;;;;;;4993082;28;20490;-74
2021/10/23 10:23:39;;;;;;;6.70;2.40;;;11.20;99.90;;;;;;5007117;28;20473;-72
2021/10/23 10:26:26;;;;;;;2.73;2.53;;;11.20;99.90;;;;;;5000445;28;20553;-71
2021/10/23 10:29:28;;;;;;;4.33;2.37;;;11.30;99.90;;;;;;4996880;28;20476;-72
2021/10/23 10:32:09;;;;;;;;;;;;;;;;;;;;;
2021/10/23 10:43:05;;;;;;;2.53;2.00;;;11.70;99.90;;;;;;5017116;28;20452;-71
2021/10/23 10:48:40;;;;;;;2.53;1.70;;;11.70;99.90;;;;;;5013381;28;20460;-71
2021/10/23 10:51:07;;;;;;;4.37;2.20;;;11.70;99.90;;;;;;5018000;28;20462;-70
2021/10/23 10:53:39;;;;;;;3.07;2.40;;;11.70;99.90;;;;;;5010308;28;20455;-73
2021/10/23 10:56:13;;;;;;;5.77;2.30;;;11.80;99.90;;;;;;4995377;28;20459;-72
2021/10/23 10:58:42;;;;;;;2.43;2.00;;;11.80;99.90;;;;;;4993191;28;20479;-72
2021/10/23 11:01:13;;;;;;;1.70;1.53;;;11.90;99.90;;;;;;5024149;28;20466;-71
2021/10/23 11:03:47;;;;;;;1.97;1.87;;;12.00;99.90;;;;;;5017691;28;20465;-72
2021/10/23 11:06:35;;;;;;;4.10;2.03;;;12.10;99.90;;;;;;5024226;28;20451;-71
2021/10/23 11:09:10;;;;;;;3.00;1.70;;;12.20;99.90;;;;;;5030877;28;20607;-71
2021/10/23 11:11:45;;;;;;;2.63;1.90;;;12.30;99.90;;;;;;5028836;28;20460;-71
2021/10/23 11:14:20;;;;;;;;;;;;;;;;;;;;;
2021/10/23 11:19:46;;;;;;;1.57;1.47;;;12.40;99.90;;;;;;5035510;28;20472;-71
2021/10/23 11:22:31;;;;;;;4.17;2.10;;;12.40;99.90;;;;;;4990624;28;20910;-71
2021/10/23 11:25:06;;;;;;;3.27;1.97;;;12.40;99.90;;;;;;5017913;28;20450;-72
2021/10/23 11:27:38;;;;;;;5.53;1.60;;;12.50;99.90;;;;;;5021520;28;20878;-72
2021/10/23 11:30:31;;;;;;;1.77;1.67;;;12.50;99.90;;;;;;5019471;28;20501;-72
2021/10/23 11:33:03;;;;;;;2.07;1.87;;;12.50;99.90;;;;;;5022175;28;20959;-71
2021/10/23 11:35:47;;;;;;;1.47;1.37;;;12.50;99.90;;;;;;5017988;28;20474;-72
2021/10/23 11:38:25;;;;;;;5.00;1.90;;;12.50;99.90;;;;;;5038232;28;20990;-74
2021/10/23 11:40:57;;;;;;;4.53;1.53;;;12.50;99.90;;;;;;5020219;28;20609;-71
2021/10/23 11:43:23;;;;;;;6.17;1.97;;;12.60;99.90;;;;;;5024530;28;20469;-71
2021/10/23 11:45:49;;;;;;;3.60;1.30;;;12.70;99.90;;;;;;5021067;28;20954;-71
2021/10/23 11:48:15;;;;;;;3.53;1.83;;;12.70;99.90;;;;;;5000848;28;20539;-71
2021/10/23 11:50:52;;;;;;;2.70;2.50;;;12.80;99.90;;;;;;4992420;28;20463;-69
2021/10/23 11:53:22;;;;;;;3.23;2.20;;;12.80;99.90;;;;;;5027298;28;20466;-71
2021/10/23 11:56:00;;;;;;;5.23;2.20;;;12.80;99.90;;;;;;5028675;28;20458;-75
2021/10/23 11:58:29;;;;;;;2.30;1.30;;;12.80;99.90;;;;;;5003916;28;20466;-69
2021/10/23 12:01:01;;;;;;;4.40;3.80;;;12.90;99.90;;;;;;5030592;28;20881;-69
2021/10/23 12:03:47;;;;;;;7.37;4.67;;;12.90;99.90;;;;;;5012537;28;20461;-70
2021/10/23 12:06:23;;;;;;;4.17;3.30;;;12.90;99.90;;;;;;5047692;28;20523;-69
2021/10/23 12:08:50;;;;;;;3.43;2.73;;;12.90;99.90;;;;;;5027036;28;20466;-70
2021/10/23 12:11:21;;;;;;;3.23;2.40;;;12.90;99.90;;;;;;5006116;28;20511;-70
2021/10/23 12:14:11;;;;;;;6.40;2.07;;;12.90;99.90;;;;;;5018619;28;20520;-72
2021/10/23 12:16:43;;;;;;;3.50;2.10;;;12.90;99.90;;;;;;5024354;28;20462;-71
2021/10/23 12:19:32;;;;;;;2.30;1.90;;;12.90;99.90;;;;;;5026095;28;20475;-71
2021/10/23 12:22:09;;;;;;;4.13;2.70;;;12.90;99.90;;;;;;5027693;28;20454;-71
2021/10/23 12:24:42;;;;;;;4.63;2.83;;;13.00;99.90;;;;;;5011934;28;20530;-71
2021/10/23 12:27:31;;;;;;;3.37;2.00;;;13.00;99.90;;;;;;5028467;28;20561;-70
2021/10/23 12:29:59;;;;;;;3.30;2.00;;;12.90;99.90;;;;;;5029148;28;20558;-70
2021/10/23 12:32:25;;;;;;;4.10;1.97;;;12.90;99.90;;;;;;5029091;28;20463;-71
2021/10/23 12:34:51;;;;;;;2.10;1.90;;;12.90;99.90;;;;;;5012623;28;20473;-71
2021/10/23 12:37:25;;;;;;;2.53;2.33;;;12.90;99.90;;;;;;5023118;28;20216;-69
2021/10/23 12:40:02;;;;;;;2.83;2.03;;;12.90;99.90;;;;;;5012524;28;20316;-72
2021/10/23 12:42:28;;;;;;;3.90;3.03;;;12.90;99.90;;;;;;5027642;28;20460;-72
2021/10/23 12:44:54;;;;;;;3.93;2.77;;;12.90;99.90;;;;;;5010160;28;20439;-72
2021/10/23 12:47:19;;;;;;;5.37;4.70;;;12.90;99.90;;;;;;4996103;28;20266;-71
2021/10/23 12:49:45;;;;;;;8.30;5.27;;;12.90;99.90;;;;;;5019298;28;20232;-71
2021/10/23 12:52:11;;;;;;;7.27;6.10;;;12.90;99.90;;;;;;5032034;28;20260;-70
2021/10/23 12:54:36;;;;;;;10.80;6.47;;;13.00;99.90;;;;;;5004149;28;20455;-72
2021/10/23 12:57:02;;;;;;;9.20;5.40;;;13.00;99.90;;;;;;5008711;28;20220;-71
2021/10/23 12:59:28;;;;;;;6.40;4.30;;;13.00;99.90;;;;;;5008243;28;20273;-70
2021/10/23 13:01:54;;;;;;;7.80;4.77;;;13.00;99.90;;;;;;5010256;28;20501;-70
2021/10/23 13:04:20;;;;;;;7.43;4.70;;;13.00;99.90;;;;;;5029592;28;20354;-70
2021/10/23 13:06:46;;;;;;;7.20;3.67;;;13.00;99.90;;;;;;5027816;28;20564;-70
2021/10/23 13:09:11;;;;;;;7.13;4.40;;;13.00;99.90;;;;;;5012297;28;20231;-70
2021/10/23 13:11:40;;;;;;;7.40;4.77;;;13.00;99.90;;;;;;5008345;28;20235;-71
2021/10/23 13:14:06;;;;;;;10.20;3.60;;;13.00;99.90;;;;;;5010233;28;20220;-70
2021/10/23 13:16:32;;;;;;;3.23;2.80;;;13.00;99.90;;;;;;5008543;28;20466;-70